Date,TemperatureHighF,TemperatureAvgF,TemperatureLowF,DewpointHighF,DewpointAvgF,DewpointLowF,HumidityHigh,HumidityAvg,HumidityLow,PressureMaxIn,PressureMinIn,WindSpeedMaxMPH,WindSpeedAvgMPH,GustSpeedMaxMPH,PrecipitationSumIn
2014-1-1,65.5,47.9,35.0,41.2,33.7,28.0,80,60,31,30.20,30.11,6,0,8,0.00
2014-1-2,66.4,49.4,37.6,42.0,35.5,32.2,84,61,32,30.16,30.04,6,0,12,0.00
2014-1-3,67.6,51.1,40.6,40.3,36.2,33.4,77,59,30,30.06,29.95,5,0,7,0.00
2014-1-4,66.9,50.3,38.3,46.1,35.3,20.2,88,59,31,30.07,29.96,7,1,12,0.00
2014-1-5,67.3,50.7,37.8,37.1,28.1,17.9,69,44,28,30.19,30.06,6,0,10,0.00
2014-1-6,63.7,49.3,38.6,41.0,35.9,29.6,74,61,36,30.27,30.14,2,0,5,0.00
2014-1-7,64.2,49.8,42.5,42.2,38.1,34.1,84,66,40,30.21,30.11,4,0,6,0.00
2014-1-8,58.3,50.4,42.2,49.9,45.7,37.8,91,84,71,30.23,30.14,5,0,8,0.00
2014-1-9,60.7,48.9,42.1,52.4,42.9,36.3,95,81,49,30.26,30.17,7,1,12,0.00
2014-1-10,64.1,49.2,39.3,49.2,41.9,35.1,93,77,53,30.30,30.16,4,0,7,0.00
2014-1-11,58.4,48.8,41.5,49.4,42.3,34.2,88,78,70,30.29,30.15,12,0,14,0.00
2014-1-12,59.0,47.8,40.8,45.4,39.3,33.1,93,74,48,30.37,30.26,8,1,12,0.00
2014-1-13,68.6,53.9,41.9,38.1,34.8,31.6,72,50,29,30.45,30.33,5,0,10,0.00
2014-1-14,72.7,59.1,46.7,35.6,30.6,25.0,59,36,19,30.44,30.30,7,1,16,0.00
2014-1-15,71.6,54.9,41.8,39.0,32.6,26.9,67,45,26,30.33,30.19,6,0,8,0.00
2014-1-16,74.0,54.0,40.2,38.2,31.6,26.4,65,45,23,30.22,30.10,5,0,8,0.00
2014-1-17,71.5,52.4,38.2,39.9,31.7,27.1,67,47,27,30.17,30.10,4,0,7,0.00
2014-1-18,73.3,52.3,37.9,38.2,30.6,25.9,64,46,23,30.16,30.05,6,0,8,0.00
2014-1-19,71.1,51.0,36.6,37.8,30.8,25.8,66,48,25,30.12,30.03,2,0,7,0.00
2014-1-20,71.1,51.2,37.6,37.1,31.0,26.3,66,49,24,30.22,30.10,4,0,7,0.00
2014-1-21,69.3,50.1,37.2,37.3,30.7,26.8,68,50,25,30.26,30.15,6,0,12,0.00
2014-1-22,75.1,52.8,37.2,33.5,26.7,23.5,61,40,15,30.16,29.91,7,0,12,0.00
2014-1-23,66.9,50.7,38.5,37.1,31.5,27.0,69,50,28,30.00,29.85,7,1,10,0.00
2014-1-24,65.8,50.2,39.1,45.3,38.6,31.7,86,66,41,30.26,29.99,4,0,6,0.00
2014-1-25,73.2,55.8,43.9,46.1,37.2,31.5,80,53,24,30.26,30.11,4,0,7,0.00
2014-1-26,73.2,55.2,43.9,39.7,36.0,31.6,76,51,27,30.11,30.00,4,0,6,0.00
2014-1-27,64.0,50.3,39.1,49.2,43.3,33.6,93,78,52,30.20,30.06,3,0,5,0.00
2014-1-28,68.6,56.8,45.2,56.2,50.0,41.6,89,79,54,30.25,30.17,6,0,10,0.00
2014-1-29,68.9,60.4,55.3,60.6,56.2,52.4,94,87,68,30.19,29.96,6,0,9,0.00
2014-1-30,62.4,54.2,49.5,52.7,46.2,39.5,94,76,43,29.97,29.84,5,1,10,0.09
2014-1-31,61.0,49.7,38.5,46.8,36.9,26.3,91,65,27,30.08,29.90,8,1,13,0.00
2014-2-1,61.5,46.0,34.9,40.2,31.8,27.3,86,61,29,30.16,30.07,5,0,10,0.00
2014-2-2,51.6,45.5,39.9,45.2,40.1,33.6,91,82,70,30.07,29.84,6,1,12,0.26
2014-2-3,55.3,44.5,37.3,46.2,38.3,33.7,95,80,58,30.07,29.97,8,1,13,0.01
2014-2-4,56.7,45.0,35.3,43.0,37.7,32.4,93,77,52,30.16,30.07,6,1,8,0.00
2014-2-5,59.9,46.4,35.8,43.6,38.9,32.6,92,76,49,30.21,30.05,6,0,12,0.04
2014-2-6,54.4,49.3,45.4,49.4,45.6,42.4,95,87,78,30.06,29.87,6,1,12,0.44
2014-2-7,53.5,50.7,46.0,50.3,47.6,43.7,94,89,83,30.09,29.98,10,2,20,0.21
2014-2-8,65.5,57.6,52.5,57.2,52.4,49.0,93,83,70,30.16,30.06,14,3,24,0.08
2014-2-9,64.8,58.9,56.6,55.8,53.6,52.2,88,83,66,30.16,30.07,8,2,16,0.01
2014-2-10,61.8,54.3,47.0,54.8,50.6,44.2,94,87,74,30.26,30.10,5,0,10,0.01
2014-2-11,63.9,50.7,40.8,52.2,46.0,38.9,95,85,61,30.25,30.16,6,0,10,0.00
2014-2-12,65.6,52.2,42.3,50.7,45.5,39.6,94,80,52,30.28,30.17,4,0,7,0.01
2014-2-13,71.3,56.4,45.2,57.1,50.3,43.0,94,81,60,30.20,30.09,6,0,10,0.00
2014-2-14,62.0,57.2,52.6,57.3,53.5,49.1,95,88,76,30.16,30.05,4,0,9,0.02
2014-2-15,65.2,54.0,48.3,55.7,49.7,46.3,95,86,61,30.06,29.96,8,0,12,0.01
2014-2-16,65.0,55.0,43.5,52.2,43.7,34.7,94,70,33,30.20,30.03,7,1,12,0.03
2014-2-17,62.0,49.3,38.9,47.9,40.7,36.2,92,74,44,30.18,30.09,8,1,13,0.01
2014-2-18,65.8,51.8,41.3,50.9,43.1,38.6,94,75,38,30.20,30.08,7,1,12,0.00
2014-2-19,65.3,54.0,44.2,52.8,44.9,39.7,92,73,46,30.20,30.09,6,1,12,0.04
2014-2-20,67.6,53.2,40.2,42.0,37.5,33.5,88,60,31,30.20,30.10,7,1,12,0.00
2014-2-21,74.0,55.2,40.8,47.9,39.9,36.9,89,61,27,30.11,29.97,6,1,9,0.00
2014-2-22,73.0,55.0,41.8,50.4,41.2,36.9,91,65,30,30.01,29.90,6,1,10,0.00
2014-2-23,72.0,54.6,42.3,51.5,44.7,38.4,93,73,32,30.02,29.93,5,0,12,0.00
2014-2-24,76.1,57.7,42.2,49.1,44.0,38.8,91,64,31,29.99,29.88,6,0,12,0.00
2014-2-25,70.4,55.2,44.5,50.8,45.8,40.9,91,73,43,29.97,29.88,6,1,10,0.00
2014-2-26,61.5,55.9,52.5,54.7,51.1,46.2,93,84,71,29.95,29.67,9,2,20,1.48
2014-2-27,64.2,57.5,51.6,54.0,49.4,45.0,93,76,58,29.90,29.49,7,1,20,0.15
2014-2-28,60.7,54.7,51.3,53.1,50.4,45.5,94,86,58,29.50,29.36,11,2,28,1.96
2014-3-1,63.9,55.5,50.1,55.1,51.2,47.4,94,86,62,29.81,29.44,12,2,20,0.55
2014-3-2,63.4,55.1,48.3,55.0,50.1,45.5,94,84,59,30.17,29.81,9,1,16,0.02
2014-3-3,61.8,53.0,45.7,53.7,47.9,43.3,95,84,61,30.16,29.98,8,1,16,0.05
2014-3-4,69.9,58.7,52.3,56.4,52.5,48.9,92,81,57,30.10,30.00,7,1,12,0.03
2014-3-5,72.7,60.3,51.4,58.6,52.3,43.3,94,77,39,30.09,30.00,9,1,17,0.00
2014-3-6,66.9,58.6,47.7,57.4,51.6,43.9,94,79,55,30.20,30.05,6,1,12,0.03
2014-3-7,70.1,55.0,42.8,49.8,44.1,40.4,93,70,38,30.17,30.08,7,1,10,0.01
2014-3-8,75.6,58.9,43.1,52.8,45.9,40.5,94,67,31,30.20,30.10,6,0,10,0.00
2014-3-9,81.1,65.1,54.1,53.2,44.7,33.4,83,54,19,30.18,30.06,7,0,12,0.00
2014-3-10,70.6,59.7,50.7,52.4,47.0,41.4,88,64,44,30.23,30.08,7,1,13,0.00
2014-3-11,68.8,58.0,48.2,43.9,35.6,28.3,79,46,26,30.20,30.01,8,2,18,0.00
2014-3-12,76.3,62.6,48.3,37.5,32.3,23.5,53,33,21,30.08,29.98,7,1,13,0.00
2014-3-13,79.2,60.6,43.9,48.5,35.4,26.5,69,44,15,30.07,29.96,7,1,12,0.00
2014-3-14,74.7,57.3,42.9,52.7,43.0,32.6,81,61,32,30.22,30.06,5,1,10,0.00
2014-3-15,82.6,62.3,45.4,52.9,43.2,36.8,90,56,21,30.29,30.21,6,1,11,0.00
2014-3-16,82.4,61.4,46.0,52.3,44.6,39.7,83,59,24,30.30,30.17,5,0,10,0.00
2014-3-17,69.8,55.8,44.2,50.1,44.1,39.8,89,68,34,30.25,29.96,6,1,14,0.00
2014-3-18,72.3,56.6,41.2,41.9,34.8,28.3,82,50,22,29.97,29.88,7,1,12,0.00
2014-3-19,78.8,59.2,42.3,41.5,37.5,34.3,76,49,25,30.07,29.97,5,0,10,0.00
2014-3-20,77.4,60.7,46.4,50.6,41.7,36.2,74,53,25,30.05,29.92,7,1,12,0.00
2014-3-21,74.7,55.8,40.9,51.2,44.9,37.3,90,70,34,29.99,29.92,5,0,8,0.00
2014-3-22,73.7,55.8,40.3,49.3,44.1,36.7,88,68,37,30.12,29.98,6,0,12,0.00
2014-3-23,74.9,57.2,45.4,51.8,47.0,41.8,91,72,40,30.17,30.07,4,0,8,0.00
2014-3-24,78.8,59.6,41.5,48.5,41.4,36.5,85,56,26,30.14,30.01,5,0,11,0.00
2014-3-25,67.3,56.0,41.6,57.1,44.8,33.4,84,67,38,30.05,29.87,5,0,11,0.03
2014-3-26,64.5,54.6,49.1,54.0,47.9,45.1,92,79,55,29.98,29.83,5,0,12,0.12
2014-3-27,70.5,55.7,45.4,51.1,46.1,42.3,92,72,41,30.14,29.98,6,0,12,0.00
2014-3-28,75.4,59.6,46.5,52.1,47.5,43.1,91,67,40,30.19,30.09,7,1,12,0.00
2014-3-29,61.2,55.8,49.8,56.8,51.5,47.4,92,86,77,30.14,30.00,8,2,13,0.40
2014-3-30,66.8,52.8,43.3,50.9,43.9,39.4,95,74,42,30.12,30.04,6,1,12,0.01
2014-3-31,55.6,47.0,39.8,46.6,42.7,37.7,92,85,67,30.08,29.83,8,1,17,0.85
2014-4-1,57.6,46.5,39.6,51.1,43.0,37.7,96,88,66,29.95,29.84,7,1,18,0.65
2014-4-2,64.0,50.4,39.8,51.0,41.5,38.2,96,75,42,30.11,29.88,5,1,12,0.01
2014-4-3,69.9,53.6,41.5,49.1,40.5,33.2,93,66,30,30.11,30.02,7,1,13,0.00
2014-4-4,60.9,52.8,46.4,50.9,45.6,42.2,90,77,55,30.05,29.96,7,1,13,0.09
2014-4-5,68.9,55.1,42.9,49.9,44.8,40.7,94,71,44,30.20,30.05,7,1,12,0.01
2014-4-6,79.4,60.9,43.8,53.7,46.7,41.1,94,64,33,30.22,30.09,6,1,10,0.00
2014-4-7,87.2,67.7,49.9,57.7,50.4,46.5,92,60,28,30.14,30.04,3,0,10,0.00
2014-4-8,92.3,69.5,53.3,59.6,52.4,42.1,91,61,18,30.10,29.99,5,0,10,0.00
2014-4-9,80.9,63.8,50.5,56.2,50.0,42.4,90,64,26,30.08,29.96,5,0,8,0.00
2014-4-10,85.3,63.7,47.4,52.9,47.2,40.9,93,62,22,30.02,29.88,3,0,8,0.00
2014-4-11,76.1,61.6,52.5,56.8,52.3,47.5,89,73,51,29.93,29.83,5,1,10,0.00
2014-4-12,75.1,59.9,48.3,53.2,48.8,44.0,87,69,43,29.95,29.84,6,1,12,0.00
2014-4-13,80.7,61.6,50.8,54.0,48.9,45.4,86,66,33,30.05,29.94,5,0,10,0.00
2014-4-14,79.9,61.6,47.0,56.3,49.3,43.6,93,69,29,30.11,30.01,4,0,9,0.00
2014-4-15,78.5,62.4,52.0,56.0,50.9,46.9,87,69,41,30.06,29.89,6,1,10,0.00
2014-4-16,85.1,63.6,46.1,53.3,47.9,42.7,91,63,26,29.92,29.80,6,1,12,0.00
2014-4-17,81.2,62.3,48.9,56.4,50.5,45.2,90,68,40,29.87,29.79,7,0,12,0.00
2014-4-18,77.2,60.5,47.1,54.0,48.2,43.3,89,66,35,29.94,29.86,7,1,13,0.00
2014-4-19,74.0,58.8,47.0,51.9,46.9,42.3,90,68,36,30.13,29.94,7,1,14,0.00
2014-4-20,84.7,63.8,46.5,57.1,47.0,32.8,93,62,16,30.13,30.04,6,1,12,0.00
2014-4-21,78.6,61.2,45.2,51.5,43.6,22.9,77,56,16,30.08,29.95,7,1,16,0.00
2014-4-22,68.8,56.6,46.5,50.2,40.4,32.5,86,58,30,30.12,29.95,8,2,16,0.00
2014-4-23,69.8,56.2,41.8,44.1,39.8,35.2,79,57,35,30.14,30.07,7,1,14,0.00
2014-4-24,72.0,59.3,47.0,53.6,48.6,42.7,91,70,49,30.12,29.97,6,1,16,0.00
2014-4-25,61.2,55.1,49.5,54.9,48.5,41.7,92,79,63,29.98,29.80,8,1,14,0.19
2014-4-26,67.6,54.8,43.5,43.7,41.0,37.9,87,62,35,30.10,29.84,6,1,13,0.00
2014-4-27,71.6,57.5,46.7,51.8,45.1,40.3,81,65,39,30.14,30.03,10,1,16,0.00
2014-4-28,77.0,60.0,42.9,49.3,42.2,33.8,85,56,24,30.21,30.14,6,1,12,0.00
2014-4-29,89.5,69.5,48.0,49.9,44.1,39.7,86,47,20,30.19,30.03,6,1,12,0.00
2014-4-30,96.3,75.5,54.8,52.5,47.6,42.8,76,42,20,30.07,29.97,7,0,12,0.00
2014-5-1,95.4,75.0,57.3,53.5,47.0,40.4,71,41,21,30.08,30.00,7,1,12,0.00
2014-5-2,86.7,68.7,53.2,53.5,45.3,38.1,78,47,23,30.08,29.99,5,1,12,0.00
2014-5-3,72.1,61.0,52.3,54.2,49.2,43.4,90,68,40,30.05,29.97,6,1,12,0.00
2014-5-4,74.0,60.3,48.8,52.5,48.2,43.5,88,67,44,30.06,29.98,8,1,16,0.00
2014-5-5,73.9,58.5,49.8,50.3,45.6,41.4,84,64,36,30.05,29.96,6,1,20,0.00
2014-5-6,76.3,59.4,47.4,45.4,42.9,39.6,80,57,29,29.97,29.87,8,1,14,0.00
2014-5-7,76.1,58.5,48.6,50.0,45.3,43.3,83,64,36,30.02,29.90,6,1,14,0.00
2014-5-8,74.2,61.0,48.3,55.4,49.8,43.4,83,68,49,30.08,30.01,6,0,12,0.00
2014-5-9,74.2,62.4,50.5,54.8,48.4,41.2,86,63,31,30.16,30.07,7,1,14,0.00
2014-5-10,75.3,58.3,44.5,46.2,42.3,39.2,85,59,32,30.15,30.02,9,2,14,0.00
2014-5-11,80.9,63.6,46.0,42.4,38.0,32.4,85,45,20,30.09,29.99,8,2,17,0.00
2014-5-12,91.6,69.7,48.0,49.4,40.3,34.1,73,40,15,30.09,30.00,6,1,12,0.00
2014-5-13,100.2,76.6,55.0,48.8,40.9,34.8,65,32,13,30.12,30.03,5,0,11,0.00
2014-5-14,98.7,78.5,59.5,49.0,41.9,34.6,53,30,15,30.13,30.01,7,1,13,0.00
2014-5-15,95.1,76.1,57.5,49.2,40.3,34.6,56,31,13,30.07,30.01,5,1,12,0.00
2014-5-16,84.1,68.0,51.7,56.9,47.2,37.4,76,49,27,30.07,29.98,6,1,12,0.00
2014-5-17,77.4,63.5,49.8,54.8,49.2,44.3,86,62,42,30.00,29.95,4,1,12,0.00
2014-5-18,79.8,62.7,50.7,52.7,47.0,43.3,80,59,29,29.99,29.94,7,1,14,0.00
2014-5-19,76.0,61.3,49.6,50.1,47.0,43.7,83,61,36,29.97,29.92,6,1,13,0.00
2014-5-20,77.4,62.1,50.1,52.0,48.3,44.8,83,63,38,29.99,29.93,6,0,12,0.00
2014-5-21,83.6,64.6,49.4,55.4,51.1,45.7,90,65,33,29.99,29.88,6,1,17,0.00
2014-5-22,82.4,65.3,53.8,56.8,52.9,48.4,85,67,39,30.02,29.90,6,1,10,0.00
2014-5-23,81.4,66.0,55.0,59.0,55.1,51.0,90,71,44,30.02,29.92,5,1,10,0.00
2014-5-24,80.5,66.2,54.1,59.0,54.4,50.4,91,68,45,29.99,29.92,6,1,10,0.00
2014-5-25,89.5,69.2,51.0,55.3,50.3,44.6,89,57,25,29.97,29.90,6,1,12,0.00
2014-5-26,87.8,69.4,50.7,56.6,48.8,40.8,84,52,26,30.02,29.94,8,1,14,0.00
2014-5-27,80.7,65.2,48.5,53.4,43.9,34.9,74,48,33,30.04,29.98,6,1,12,0.00
2014-5-28,84.5,64.9,45.8,41.8,38.5,33.8,75,42,20,30.05,29.93,6,1,13,0.00
2014-5-29,89.9,68.5,49.5,51.1,41.8,32.7,74,45,16,29.94,29.86,10,1,14,0.00
2014-5-30,75.1,60.4,46.4,53.7,47.8,39.1,84,65,41,29.97,29.89,6,1,12,0.00
2014-5-31,84.7,64.9,49.6,55.2,49.8,44.6,84,61,31,29.96,29.88,6,1,12,0.00
2014-6-1,87.4,67.3,49.8,56.3,50.4,42.2,88,59,31,29.91,29.77,6,1,12,0.00
2014-6-2,81.1,64.2,52.3,53.1,50.4,47.6,86,64,34,29.89,29.81,5,1,12,0.00
2014-6-3,83.8,64.6,50.4,56.0,51.3,46.4,87,66,35,29.93,29.84,6,1,10,0.00
2014-6-4,89.3,67.9,50.2,58.6,53.3,47.0,91,64,32,29.89,29.80,4,0,12,0.00
2014-6-5,89.0,69.0,52.8,60.2,54.3,48.4,89,63,29,29.85,29.77,5,1,10,0.00
2014-6-6,84.0,66.2,51.6,58.6,54.0,47.9,91,68,39,29.83,29.76,6,1,14,0.00
2014-6-7,87.6,69.4,53.9,60.1,54.9,50.1,88,64,34,29.84,29.75,5,0,10,0.00
2014-6-8,102.8,78.6,55.1,61.3,55.4,51.3,90,52,20,29.80,29.70,4,0,10,0.00
2014-6-9,99.2,77.8,59.8,62.1,56.5,48.8,76,51,27,29.73,29.65,5,0,11,0.00
2014-6-10,82.6,69.5,57.5,61.9,57.3,52.4,86,67,46,29.80,29.69,5,1,12,0.00
2014-6-11,84.5,66.7,53.5,57.8,53.9,50.1,91,66,33,29.89,29.78,9,1,13,0.00
2014-6-12,76.1,64.3,53.2,54.3,50.6,46.0,85,63,40,29.96,29.88,7,1,12,0.00
2014-6-13,84.7,66.5,47.7,52.3,45.8,39.5,78,51,29,29.97,29.90,8,1,12,0.00
2014-6-14,90.7,69.8,52.8,56.6,48.6,42.1,84,53,19,29.92,29.82,7,1,13,0.00
2014-6-15,80.1,64.7,51.3,53.6,49.1,43.5,81,59,38,29.85,29.78,5,1,11,0.00
2014-6-16,80.7,63.0,52.2,49.5,45.0,39.4,82,56,26,29.92,29.83,7,1,12,0.00
2014-6-17,82.8,64.5,46.0,51.4,44.5,39.0,86,53,24,29.94,29.87,8,1,16,0.00
2014-6-18,92.5,71.8,50.8,52.4,43.1,36.8,73,41,16,29.93,29.88,7,1,13,0.00
2014-6-19,85.5,70.1,50.4,56.8,50.2,38.4,81,52,32,29.98,29.92,6,1,12,0.00
2014-6-20,90.1,69.9,51.1,56.4,48.9,42.4,83,53,20,29.98,29.91,8,1,17,0.00
2014-6-21,80.5,64.3,51.1,55.2,49.1,37.9,81,59,35,29.93,29.88,6,1,10,0.00
2014-6-22,81.8,63.5,48.0,56.0,50.6,42.4,88,66,33,29.95,29.88,6,1,12,0.00
2014-6-23,84.5,67.8,51.9,58.2,52.9,47.6,87,62,37,29.95,29.89,6,1,12,0.00
2014-6-24,82.4,69.3,52.8,57.6,51.3,46.8,83,56,31,29.99,29.94,7,1,12,0.00
2014-6-25,80.3,66.7,56.0,59.9,55.7,50.4,86,69,47,29.99,29.95,10,1,18,0.00
2014-6-26,79.4,68.6,59.6,58.0,55.2,50.1,85,65,37,29.99,29.91,7,1,13,0.00
2014-6-27,82.5,68.6,55.3,62.1,57.2,50.8,88,69,44,29.98,29.91,6,1,14,0.00
2014-6-28,82.4,69.5,55.7,60.1,54.6,48.5,87,62,35,29.95,29.89,4,1,12,0.00
2014-6-29,93.2,73.2,53.1,57.6,52.4,45.4,81,52,28,29.93,29.81,6,1,12,0.00
2014-6-30,102.0,76.7,58.0,59.7,55.3,46.2,77,52,23,29.82,29.75,4,0,10,0.00
2014-7-1,88.6,70.8,57.0,60.6,56.6,51.9,86,64,34,29.84,29.76,6,1,12,0.00
2014-7-2,88.0,68.9,57.0,60.7,55.6,52.5,88,66,38,29.90,29.82,6,1,12,0.00
2014-7-3,91.2,69.1,54.1,59.8,55.7,50.4,90,66,34,29.92,29.86,6,1,12,0.00
2014-7-4,85.3,68.0,52.2,61.0,54.7,45.9,89,66,40,30.00,29.87,6,1,10,0.00
2014-7-5,89.9,70.4,54.5,59.2,55.0,50.7,91,63,31,30.05,29.98,5,1,9,0.00
2014-7-6,91.4,71.0,52.5,59.8,55.0,48.7,91,61,33,30.04,29.91,4,1,8,0.00
2014-7-7,91.0,71.6,57.5,62.0,57.9,53.4,90,65,37,29.92,29.80,5,0,8,0.00
2014-7-8,88.8,71.6,60.4,61.1,58.1,55.4,88,66,37,29.90,29.83,5,1,12,0.00
2014-7-9,92.3,70.9,56.2,61.7,56.9,52.7,89,65,31,29.93,29.82,6,1,15,0.00
2014-7-10,88.4,70.4,57.2,59.2,55.6,51.2,90,64,29,29.92,29.83,7,1,13,0.00
2014-7-11,81.6,67.9,56.5,59.2,55.8,52.4,88,67,43,30.06,29.91,8,1,14,0.00
2014-7-12,78.8,67.3,60.2,59.3,56.2,53.4,85,69,49,30.07,30.00,6,1,10,0.00
2014-7-13,85.1,70.5,59.3,61.6,58.0,55.1,86,67,43,30.04,29.87,6,1,8,0.00
2014-7-14,94.3,74.1,59.2,63.5,58.4,53.8,88,62,29,29.91,29.83,6,0,12,0.00
2014-7-15,89.3,72.8,61.5,65.3,61.7,58.2,89,71,42,29.98,29.89,6,1,8,0.00
2014-7-16,88.6,72.8,63.7,63.5,60.3,57.3,87,67,38,30.01,29.93,6,1,12,0.00
2014-7-17,84.5,70.3,58.0,61.9,58.2,54.2,88,68,43,29.99,29.91,6,1,13,0.00
2014-7-18,84.5,69.1,57.5,61.8,58.1,53.4,88,70,43,29.99,29.91,7,1,12,0.00
2014-7-19,84.3,71.0,61.5,62.8,59.5,56.3,85,69,43,29.95,29.89,7,1,12,0.00
2014-7-20,85.1,71.4,63.7,63.9,61.1,59.4,87,72,46,29.97,29.90,6,1,12,0.00
2014-7-21,84.1,72.0,62.4,62.5,59.4,56.7,85,66,44,30.03,29.95,8,1,12,0.00
2014-7-22,85.3,71.5,63.1,61.1,58.2,54.9,84,65,41,30.09,30.00,6,1,14,0.00
2014-7-23,82.8,69.7,57.5,63.7,58.1,53.2,88,68,47,30.12,30.03,6,1,12,0.00
2014-7-24,93.2,73.9,56.3,61.6,57.0,52.5,90,61,27,30.03,29.82,6,1,12,0.00
2014-7-25,101.5,78.3,58.1,61.1,53.8,46.0,81,47,20,29.86,29.79,7,1,12,0.00
2014-7-26,96.8,76.3,58.3,64.0,57.1,46.7,80,54,27,29.93,29.84,5,1,10,0.00
2014-7-27,93.8,75.9,65.3,64.5,60.6,57.6,83,63,31,29.98,29.88,5,1,8,0.00
2014-7-28,89.9,72.8,60.5,63.2,59.7,56.9,91,67,36,30.03,29.96,6,1,13,0.00
2014-7-29,90.3,74.8,61.8,64.7,60.0,57.5,88,64,36,30.04,29.94,5,1,12,0.00
2014-7-30,92.5,73.7,59.9,64.4,60.3,56.3,90,66,35,29.99,29.91,5,1,10,0.00
2014-7-31,91.6,73.5,59.8,64.4,60.6,56.5,92,68,40,29.97,29.86,5,0,8,0.00
2014-8-1,92.9,74.3,56.6,65.2,60.0,52.1,88,64,37,29.89,29.84,5,1,8,0.00
2014-8-2,83.2,70.1,60.2,63.0,59.4,56.3,91,71,49,29.93,29.87,7,1,12,0.00
2014-8-3,82.4,68.4,59.8,62.0,58.4,55.6,87,72,48,29.95,29.88,5,1,12,0.00
2014-8-4,85.9,69.6,59.8,60.8,57.8,54.0,83,68,40,29.98,29.91,7,1,13,0.00
2014-8-5,88.0,70.1,61.0,63.2,59.6,56.7,87,71,41,30.06,29.97,8,1,14,0.00
2014-8-6,89.7,72.1,64.7,65.7,61.2,59.0,88,71,38,30.01,29.91,6,1,14,0.00
2014-8-7,86.1,70.3,61.3,63.5,59.9,56.6,88,72,46,29.96,29.88,7,1,12,0.00
2014-8-8,86.7,69.6,55.7,62.2,57.4,52.5,91,69,39,29.92,29.84,5,1,10,0.00
2014-8-9,83.0,66.4,54.4,60.4,55.8,50.7,90,71,44,29.98,29.88,6,1,12,0.00
2014-8-10,86.7,68.5,58.6,60.9,56.5,53.1,84,68,37,29.99,29.90,5,1,12,0.00
2014-8-11,84.0,69.4,56.9,62.1,58.1,53.1,89,70,44,29.94,29.86,6,1,12,0.00
2014-8-12,85.1,67.6,54.4,60.6,56.7,51.5,92,71,36,29.97,29.90,7,1,14,0.01
2014-8-13,85.1,70.3,58.0,61.2,58.1,53.2,86,68,42,29.98,29.91,6,1,12,0.00
2014-8-14,85.1,70.1,58.0,63.4,59.5,55.4,93,72,45,29.95,29.86,6,1,12,0.00
2014-8-15,86.7,70.0,55.0,62.4,57.7,51.2,89,68,38,29.99,29.91,5,1,10,0.00
2014-8-16,87.6,70.7,58.6,62.8,57.6,52.7,85,66,39,30.03,29.93,6,1,9,0.00
2014-8-17,87.0,68.3,54.1,62.6,56.8,47.7,87,69,41,30.03,29.89,4,1,8,0.00
2014-8-18,83.6,67.8,59.0,62.0,58.3,55.1,88,74,46,29.91,29.80,6,1,10,0.00
2014-8-19,84.9,69.4,61.5,61.1,57.8,55.6,84,69,42,29.86,29.77,7,1,12,0.00
2014-8-20,85.1,68.8,57.6,58.9,55.2,50.8,87,65,31,29.91,29.83,7,1,14,0.00
2014-8-21,86.3,69.8,55.9,63.4,57.5,52.1,89,68,39,29.93,29.87,6,1,12,0.00
2014-8-22,87.4,69.3,56.7,62.0,57.5,52.9,91,69,38,29.92,29.86,6,1,12,0.00
2014-8-23,86.3,67.8,53.5,59.4,55.3,49.1,88,68,30,29.94,29.82,5,1,12,0.00
2014-8-24,82.2,68.4,57.3,60.6,57.3,52.4,86,70,45,29.90,29.78,7,1,12,0.00
2014-8-25,85.1,67.1,55.6,59.5,55.8,51.9,90,69,34,29.94,29.81,6,1,12,0.00
2014-8-26,83.8,67.1,53.3,60.2,55.4,49.7,90,69,44,30.00,29.91,5,1,9,0.00
2014-8-27,88.6,71.0,56.6,62.0,57.9,53.0,91,67,36,30.05,29.96,6,1,12,0.00
2014-8-28,89.7,69.9,57.0,62.5,58.6,52.9,90,71,37,30.07,29.91,3,0,12,0.00
2014-8-29,90.5,69.9,60.1,63.5,59.8,55.9,90,73,37,29.95,29.85,7,1,12,0.00
2014-8-30,90.7,72.9,57.5,62.8,56.1,49.6,84,59,33,29.90,29.84,5,0,12,0.00
2014-8-31,88.0,70.6,54.2,62.2,56.4,49.1,84,64,38,29.91,29.82,5,1,12,0.00
2014-9-1,93.8,73.6,55.6,60.5,55.1,48.6,86,57,28,29.84,29.74,6,0,12,0.00
2014-9-2,84.3,70.9,57.8,62.8,58.9,52.6,88,68,45,29.83,29.75,7,1,12,0.00
2014-9-3,87.2,68.8,58.1,61.1,57.5,54.2,89,70,40,29.78,29.67,6,1,12,0.00
2014-9-4,87.4,69.1,58.3,61.7,58.5,54.5,91,72,38,29.78,29.69,6,1,12,0.00
2014-9-5,82.0,67.5,57.0,61.5,57.4,52.9,89,72,47,29.90,29.78,7,1,12,0.00
2014-9-6,83.4,67.3,59.2,60.9,56.8,54.5,86,71,45,29.96,29.86,6,1,12,0.00
2014-9-7,81.1,66.3,58.3,58.9,55.8,53.3,84,71,45,29.89,29.79,6,1,12,0.00
2014-9-8,76.3,64.6,56.3,57.1,54.6,51.2,86,72,49,29.94,29.83,7,1,12,0.00
2014-9-9,83.2,66.2,53.1,60.2,54.5,48.4,86,69,39,29.99,29.88,5,0,9,0.00
2014-9-10,97.8,71.1,52.3,61.1,54.5,46.5,93,63,19,29.94,29.80,5,0,8,0.00
2014-9-11,95.6,73.2,55.4,61.2,53.8,45.1,83,56,21,29.89,29.79,4,0,10,0.00
2014-9-12,92.5,72.4,55.7,63.1,55.6,47.0,86,59,31,29.88,29.77,6,0,8,0.00
2014-9-13,89.3,70.5,58.4,64.2,58.7,53.8,90,69,40,29.84,29.75,4,0,8,0.00
2014-9-14,86.1,71.0,58.4,62.6,58.3,54.8,92,68,39,29.85,29.77,6,0,12,0.00
2014-9-15,83.6,68.2,57.0,62.5,56.8,52.9,90,69,44,29.92,29.82,8,1,12,0.00
2014-9-16,86.7,68.7,53.3,59.6,54.2,49.2,88,64,31,29.92,29.78,7,0,12,0.00
2014-9-17,92.9,75.1,59.2,61.6,56.2,45.1,84,57,25,29.82,29.71,8,1,17,0.00
2014-9-18,85.9,72.1,64.5,63.6,60.2,56.1,88,69,38,29.88,29.76,6,1,13,0.00
2014-9-19,83.8,69.8,59.6,64.9,60.4,55.4,89,74,49,29.90,29.82,6,0,10,0.00
2014-9-20,84.1,68.8,60.7,64.3,60.7,57.6,91,77,48,29.94,29.86,8,1,12,0.00
2014-9-21,80.7,68.3,63.1,62.3,59.6,57.6,86,75,51,30.00,29.90,6,1,14,0.00
2014-9-22,84.7,69.3,61.3,61.0,58.8,56.3,84,71,43,30.04,29.92,6,0,12,0.00
2014-9-23,85.3,67.9,56.2,63.0,59.1,53.6,93,76,45,30.01,29.89,7,1,12,0.00
2014-9-24,85.7,70.5,59.0,64.2,60.1,54.8,89,72,45,29.97,29.83,8,0,14,0.00
2014-9-25,75.4,64.7,56.7,62.9,57.9,52.1,95,80,55,30.01,29.87,4,0,10,0.47
2014-9-26,74.6,62.8,54.1,60.6,54.3,50.9,92,75,53,30.00,29.90,5,1,9,0.02
2014-9-27,80.7,65.6,56.9,58.4,54.6,51.9,89,70,40,29.93,29.81,5,0,10,0.00
2014-9-28,81.1,64.3,53.2,59.9,55.2,50.1,93,74,44,29.95,29.81,7,1,12,0.00
2014-9-29,78.1,64.9,55.3,61.0,57.3,52.7,93,78,55,30.02,29.95,7,1,12,0.00
2014-9-30,79.8,64.9,52.2,60.6,55.2,49.7,94,73,41,29.98,29.83,4,0,10,0.00
2014-10-1,88.0,69.0,53.5,54.4,46.4,38.1,89,53,19,29.93,29.83,6,1,12,0.01
2014-10-2,94.0,71.9,52.3,47.8,44.2,40.0,69,42,18,30.02,29.92,5,0,10,0.00
2014-10-3,97.3,75.2,56.6,52.1,46.3,42.8,69,41,16,30.08,29.97,4,0,7,0.00
2014-10-4,98.0,75.9,57.8,50.7,43.8,39.5,60,36,15,30.02,29.89,6,0,8,0.00
2014-10-5,97.1,74.4,57.2,52.5,46.5,40.6,62,41,18,29.94,29.85,5,0,7,0.00
2014-10-6,94.5,72.2,53.2,60.0,50.3,38.0,85,49,26,29.91,29.81,4,0,6,0.00
2014-10-7,89.9,67.8,53.9,62.9,54.4,47.3,92,66,31,29.93,29.82,5,0,7,0.00
2014-10-8,92.7,69.1,53.3,62.9,53.5,47.6,94,64,23,29.90,29.82,5,0,12,0.00
2014-10-9,83.0,64.9,52.9,61.1,54.6,45.0,91,71,45,29.98,29.89,3,0,7,0.00
2014-10-10,76.8,64.1,56.2,58.9,55.9,52.7,91,76,52,30.06,29.97,4,0,8,0.00
2014-10-11,83.0,64.7,51.4,58.7,54.1,48.6,92,72,38,30.06,29.95,3,0,6,0.00
2014-10-12,91.4,71.0,54.1,51.9,41.8,32.5,88,43,15,29.99,29.87,5,0,10,0.00
2014-10-13,93.4,71.9,56.7,56.0,42.5,31.6,83,39,16,29.95,29.88,5,0,10,0.00
2014-10-14,70.4,63.1,53.5,58.5,55.0,50.7,93,76,56,29.92,29.81,10,2,20,0.00
2014-10-15,76.7,65.2,56.9,57.8,54.7,51.9,86,70,44,30.01,29.84,10,1,14,0.00
2014-10-16,75.8,61.6,52.6,53.9,49.6,45.1,88,67,40,30.03,29.92,4,0,8,0.00
2014-10-17,78.1,62.0,49.1,53.9,49.3,43.3,86,66,37,29.97,29.90,5,0,12,0.00
2014-10-18,81.4,65.6,53.2,59.3,53.5,50.1,92,68,37,29.97,29.85,4,0,9,0.00
2014-10-19,82.2,64.9,53.3,61.7,56.8,50.7,93,77,47,29.91,29.83,5,0,12,0.00
2014-10-20,73.9,60.8,52.0,59.4,55.6,49.2,91,84,57,30.07,29.89,6,0,14,0.04
2014-10-21,73.2,58.8,49.2,57.0,47.5,42.2,95,70,33,30.11,30.00,5,1,13,0.00
2014-10-22,75.8,61.1,48.6,55.0,48.9,44.0,91,67,39,30.07,29.99,5,0,10,0.00
2014-10-23,77.5,63.4,53.5,58.8,53.3,49.1,88,72,44,30.07,29.95,5,0,8,0.00
2014-10-24,84.3,63.8,50.7,60.1,52.7,45.7,94,72,27,29.96,29.86,6,1,12,0.00
2014-10-25,71.3,63.1,54.5,62.1,55.0,50.4,94,76,53,30.14,29.90,6,1,14,0.12
2014-10-26,70.4,57.7,49.9,54.7,46.8,38.5,94,71,33,30.16,30.04,7,1,18,0.01
2014-10-27,74.2,57.6,45.7,53.5,46.7,42.2,92,71,32,30.06,29.98,4,0,8,0.00
2014-10-28,77.2,59.4,45.7,53.4,45.5,41.1,90,65,29,30.12,30.04,5,0,8,0.00
2014-10-29,83.8,63.7,49.2,56.5,48.6,43.5,90,62,29,30.11,29.96,3,0,7,0.00
2014-10-30,81.6,64.2,55.4,55.4,49.8,43.9,84,62,27,29.96,29.85,4,0,9,0.00
2014-10-31,62.7,58.4,52.3,58.1,54.0,50.5,94,86,79,29.90,29.72,6,0,12,0.37
2014-11-1,65.5,54.1,48.0,56.4,49.2,44.8,96,85,54,30.04,29.73,5,0,10,0.11
2014-11-2,67.9,53.8,45.5,53.8,45.2,40.6,95,76,43,30.17,30.03,6,0,12,0.01
2014-11-3,73.0,55.2,42.3,50.0,42.1,37.6,91,66,29,30.26,30.16,3,0,8,0.00
2014-11-4,73.5,56.8,43.5,52.6,45.1,39.6,89,68,33,30.31,30.21,4,0,8,0.00
2014-11-5,81.1,61.0,47.1,54.6,47.8,43.1,91,66,33,30.22,30.06,3,0,6,0.00
2014-11-6,77.6,60.8,48.8,55.8,49.9,43.0,88,69,38,30.21,30.11,3,0,7,0.00
2014-11-7,76.1,58.6,44.9,58.5,51.0,42.1,93,78,52,30.22,30.08,4,0,8,0.00
2014-11-8,79.0,61.6,48.6,60.1,51.3,46.7,95,72,37,30.11,29.99,3,0,8,0.01
2014-11-9,81.1,61.2,48.5,58.2,50.6,44.5,91,71,38,30.02,29.81,2,0,8,0.00
2014-11-10,77.0,57.8,45.7,57.5,50.1,42.1,93,77,45,29.84,29.76,3,0,8,0.00
2014-11-11,68.3,57.4,47.9,55.2,49.1,44.9,93,75,52,29.96,29.83,6,1,13,0.01
2014-11-12,69.9,60.7,54.8,49.3,48.2,47.0,80,65,45,30.01,29.93,5,0,10,0.00
2014-11-13,68.9,61.2,54.5,59.7,54.8,49.6,89,80,63,30.07,29.93,8,1,13,0.03
2014-11-14,66.8,56.0,48.2,57.5,49.9,44.9,95,81,61,30.11,30.05,3,0,8,0.01
2014-11-15,68.6,54.7,45.8,55.5,47.2,43.7,95,77,50,30.17,30.09,6,1,12,0.01
2014-11-16,66.1,53.9,46.1,46.2,35.0,21.7,91,56,20,30.25,30.17,5,0,12,0.00
2014-11-17,69.8,52.6,40.2,44.7,36.2,30.9,76,56,28,30.24,30.09,4,0,8,0.00
2014-11-18,68.8,55.1,43.2,44.2,40.1,36.1,80,59,36,30.12,30.03,2,0,7,0.00
2014-11-19,66.8,59.5,52.6,55.2,46.7,28.2,90,65,29,30.12,29.99,7,1,17,0.01
2014-11-20,58.3,53.8,48.6,56.4,51.1,46.4,95,91,80,30.11,29.97,3,0,7,0.28
2014-11-21,65.3,55.1,46.1,56.7,50.2,44.5,96,85,61,30.13,30.02,2,0,5,0.02
2014-11-22,66.0,57.3,49.4,58.9,52.2,45.7,90,83,62,30.23,30.06,7,1,13,0.00
2014-11-23,67.4,53.1,44.6,51.8,42.7,38.8,95,71,37,30.33,30.23,3,0,8,0.01
2014-11-24,69.9,53.5,41.5,43.1,37.5,35.0,83,58,28,30.40,30.30,5,0,7,0.00
2014-11-25,70.3,53.1,40.8,45.6,39.9,34.8,83,64,34,30.44,30.31,3,0,7,0.00
2014-11-26,74.4,54.9,41.9,50.6,44.3,38.8,91,71,38,30.31,30.18,2,0,5,0.00
2014-11-27,75.8,55.2,42.6,50.3,42.7,32.6,83,66,36,30.19,30.05,2,0,4,0.00
2014-11-28,68.4,50.6,38.3,51.1,42.2,31.4,90,74,45,30.06,29.85,4,0,6,0.00
2014-11-29,62.6,56.7,50.2,57.6,52.9,46.2,94,87,79,29.86,29.73,5,0,12,0.72
2014-11-30,59.0,55.3,50.7,57.6,51.9,44.9,95,89,70,30.01,29.72,3,0,12,0.96
2014-12-1,67.8,57.9,51.6,60.1,54.3,49.4,95,88,71,30.10,29.92,3,0,12,0.01
2014-12-2,60.5,56.7,51.6,58.5,55.2,49.6,97,95,88,29.92,29.66,6,1,17,1.72
2014-12-3,63.1,59.5,57.0,59.9,57.5,55.3,96,93,88,29.88,29.68,15,2,31,2.20
2014-12-4,66.8,59.6,55.6,60.6,56.4,53.7,97,89,73,30.01,29.87,4,0,7,0.00
2014-12-5,63.4,59.7,54.2,59.3,56.9,52.5,95,91,83,30.08,29.97,6,1,13,0.08
2014-12-6,68.6,60.4,55.3,61.1,56.4,52.2,95,87,67,30.21,30.07,5,0,12,0.07
2014-12-7,65.5,56.4,49.8,60.6,53.1,47.7,96,89,69,30.20,30.11,4,0,7,0.01
2014-12-8,72.8,58.0,48.6,59.8,53.2,47.2,97,85,57,30.17,30.09,3,0,7,0.01
2014-12-9,65.6,57.8,50.8,59.6,54.3,48.2,96,89,76,30.19,30.06,4,0,7,0.01
2014-12-10,65.3,58.1,50.4,56.6,53.4,47.8,95,85,64,30.06,29.74,10,2,17,0.00
2014-12-11,62.4,56.4,49.9,58.1,53.2,49.0,97,90,71,29.74,29.53,14,2,28,4.26
2014-12-12,54.5,49.8,45.7,54.5,48.9,44.4,100,97,95,30.08,29.63,4,0,10,0.18
2014-12-13,57.3,48.2,42.2,53.1,45.5,41.1,97,91,72,30.22,30.07,3,0,7,0.01
2014-12-14,60.4,51.0,42.6,50.9,45.3,40.9,96,82,62,30.14,29.98,7,1,13,0.03
2014-12-15,55.4,51.6,49.5,52.8,49.1,47.0,95,91,80,29.98,29.82,6,1,12,0.85
2014-12-16,60.2,52.4,46.2,53.8,49.0,44.8,96,89,68,29.96,29.81,9,1,17,0.98
2014-12-17,57.5,50.7,45.4,53.9,48.5,44.1,97,92,75,30.09,29.94,7,1,14,0.21
2014-12-18,64.7,54.4,49.8,55.3,49.5,46.7,94,84,61,30.18,30.05,6,0,12,0.00
2014-12-19,56.6,55.2,53.9,53.3,51.6,49.5,94,88,83,30.17,30.10,8,2,20,0.05
2014-12-20,61.3,56.8,53.9,58.4,53.9,52.4,97,90,77,30.25,30.11,2,0,4,0.12
2014-12-21,63.9,58.4,52.9,59.3,55.5,50.9,95,90,81,30.32,30.23,4,0,7,0.00
2014-12-22,66.1,57.8,51.4,57.3,53.9,49.2,94,87,70,30.28,30.17,6,0,9,0.00
2014-12-23,70.6,56.9,47.7,55.6,49.6,44.6,96,79,50,30.20,30.10,7,0,12,0.01
2014-12-24,61.8,50.4,44.6,56.0,46.2,38.8,96,86,68,30.12,29.95,9,1,17,0.03
2014-12-25,56.3,49.0,43.5,39.9,36.7,33.8,77,64,43,30.13,30.03,13,3,20,0.00
2014-12-26,57.5,48.0,39.3,37.6,31.7,27.3,75,55,32,30.25,30.08,8,1,12,0.00
2014-12-27,57.8,44.0,33.8,38.4,33.7,29.7,86,69,40,30.38,30.25,3,0,6,0.00
2014-12-28,58.9,45.5,35.8,42.6,38.1,32.9,92,77,49,30.35,30.23,6,0,10,0.00
2014-12-29,58.6,48.9,41.6,46.3,41.8,35.8,92,77,59,30.23,30.09,6,1,12,0.00
2014-12-30,53.1,45.1,36.9,39.2,27.1,14.6,91,55,28,30.22,30.09,14,3,26,0.00
2014-12-31,55.6,42.1,31.5,26.4,19.6,12.7,66,43,20,30.26,30.06,8,1,20,0.00
2015-1-1,55.1,41.3,30.9,31.7,25.3,20.8,77,55,30,30.16,30.06,4,0,8,0.00
2015-1-2,54.2,40.1,31.0,37.0,31.7,27.3,96,75,44,30.21,30.10,5,0,7,0.00